Goldston, NC (27252)

3:32 AM EST on February 09, 2016 (GMT -0500)
Gress Weather Station | | Change Station
CLOSE
Current Station
Personal Weather Station
Location: Sanford, NC
Elevation: 348 ft
Nearby Weather Stations

Elev 348 ft 35.50 °N, 79.29 °W | Updated 6 minutes ago

Overcast
Overcast
36.0 °F
Feels Like 36 °F
N
0.0
Wind Variable Wind from West

Today
High -- | Low -- °F
--% Chance of Precip.
Yesterday
High -- | Low -- °F
Precip. -- in
Pressure 29.61 in
Visibility 10.0 miles
Clouds Scattered Clouds 10000 ft
Windchill 36 °F
Dew Point 36 °F
Humidity 99%
Rainfall 0.00 in
Snow Depth Not available.
7:10 AM 5:52 PM
New Moon, 1% visible
METAR KTTA 090815Z AUTO 00000KT 10SM SCT100 03/01 A2961 RMK AO2 T00260013
Pressure 29.61 in
Visibility 10.0 miles
Clouds Scattered Clouds 10000 ft
Windchill 36 °F
Dew Point 36 °F
Humidity 99%
Rainfall 0.00 in
Snow Depth Not available.
7:10 AM 5:52 PM
New Moon, 1% visible
METAR KTTA 090815Z AUTO 00000KT 10SM SCT100 03/01 A2961 RMK AO2 T00260013

10-Day Weather Forecast

Almanac

Astronomy

Feb. 09, 2016 Rise Set
Actual Time
Civil Twilight
Nautical Twilight
Astronomical Twilight
Moon
Length of Visible Light
Length of Day
Tomorrow will be .
, % of the Moon is Illuminated

Today's Extremes

State Highs State Lows

Community

WunderPhotos

Upload Photos

1,891,571 photos uploaded!

WunderBlog® & News

Nearby

Air Quality

  Air Quality AQ Index Pollutant
Not available.

Snow Depth

Station Depth Elevation

Earthquake Activity

City Distance Mag. Time & Date
Minimum magnitude displayed is 2.5.

Coastal Water Temperatures

Place Temperature

Stations

Nearby Weather Stations

Station Location Temp. Windchill Dew Point Humidity Wind Precip. Elev Updated Type
                   

Watches & Warnings

There are currently no watches in effect.